sensor_id;sensor_type;location;lat;lon;timestamp;P1;durP1;ratioP1;P2;durP2;ratioP2
20559;SDS011;10438;51.454;6.718;2023-07-30T00:01:54;13.38;;;3.65;;
20559;SDS011;10438;51.454;6.718;2023-07-30T00:04:19;13.20;;;3.47;;
20559;SDS011;10438;51.454;6.718;2023-07-30T00:06:46;9.20;;;3.33;;
20559;SDS011;10438;51.454;6.718;2023-07-30T00:09:11;8.55;;;3.25;;
20559;SDS011;10438;51.454;6.718;2023-07-30T00:11:37;10.15;;;3.10;;
20559;SDS011;10438;51.454;6.718;2023-07-30T00:14:02;7.90;;;2.85;;
20559;SDS011;10438;51.454;6.718;2023-07-30T00:16:28;9.73;;;3.13;;
20559;SDS011;10438;51.454;6.718;2023-07-30T00:18:53;7.57;;;3.05;;
20559;SDS011;10438;51.454;6.718;2023-07-30T00:21:19;9.23;;;3.28;;
20559;SDS011;10438;51.454;6.718;2023-07-30T00:23:44;9.35;;;3.13;;
20559;SDS011;10438;51.454;6.718;2023-07-30T00:26:10;8.23;;;2.80;;
20559;SDS011;10438;51.454;6.718;2023-07-30T00:28:36;8.15;;;3.00;;
20559;SDS011;10438;51.454;6.718;2023-07-30T00:31:01;11.10;;;3.13;;
20559;SDS011;10438;51.454;6.718;2023-07-30T00:33:27;9.10;;;3.20;;
20559;SDS011;10438;51.454;6.718;2023-07-30T00:35:52;12.48;;;3.40;;
20559;SDS011;10438;51.454;6.718;2023-07-30T00:38:18;7.10;;;2.78;;
20559;SDS011;10438;51.454;6.718;2023-07-30T00:40:44;9.77;;;2.88;;
20559;SDS011;10438;51.454;6.718;2023-07-30T00:43:10;9.68;;;2.92;;
20559;SDS011;10438;51.454;6.718;2023-07-30T00:45:36;8.05;;;2.60;;
20559;SDS011;10438;51.454;6.718;2023-07-30T00:48:05;7.90;;;3.10;;
20559;SDS011;10438;51.454;6.718;2023-07-30T00:50:30;17.60;;;3.83;;
20559;SDS011;10438;51.454;6.718;2023-07-30T00:52:57;10.73;;;4.55;;
20559;SDS011;10438;51.454;6.718;2023-07-30T00:55:22;11.23;;;4.20;;
20559;SDS011;10438;51.454;6.718;2023-07-30T00:57:48;12.13;;;4.07;;
20559;SDS011;10438;51.454;6.718;2023-07-30T01:00:14;12.02;;;3.90;;
20559;SDS011;10438;51.454;6.718;2023-07-30T01:02:40;11.32;;;4.50;;
20559;SDS011;10438;51.454;6.718;2023-07-30T01:05:05;10.63;;;4.35;;
20559;SDS011;10438;51.454;6.718;2023-07-30T01:07:31;14.27;;;3.40;;
20559;SDS011;10438;51.454;6.718;2023-07-30T01:09:57;8.60;;;3.40;;
20559;SDS011;10438;51.454;6.718;2023-07-30T01:12:23;13.43;;;3.63;;
20559;SDS011;10438;51.454;6.718;2023-07-30T01:14:49;12.02;;;2.95;;
20559;SDS011;10438;51.454;6.718;2023-07-30T01:17:16;10.07;;;3.63;;
20559;SDS011;10438;51.454;6.718;2023-07-30T01:19:42;12.15;;;4.05;;
20559;SDS011;10438;51.454;6.718;2023-07-30T01:22:07;9.07;;;3.65;;
20559;SDS011;10438;51.454;6.718;2023-07-30T01:24:33;13.10;;;4.00;;
20559;SDS011;10438;51.454;6.718;2023-07-30T01:26:59;12.43;;;3.47;;
20559;SDS011;10438;51.454;6.718;2023-07-30T01:29:41;12.23;;;3.75;;
20559;SDS011;10438;51.454;6.718;2023-07-30T01:32:19;8.15;;;3.25;;
20559;SDS011;10438;51.454;6.718;2023-07-30T01:34:49;10.73;;;4.32;;
20559;SDS011;10438;51.454;6.718;2023-07-30T01:37:17;15.17;;;4.77;;
20559;SDS011;10438;51.454;6.718;2023-07-30T01:39:42;14.95;;;4.28;;
20559;SDS011;10438;51.454;6.718;2023-07-30T01:42:13;14.00;;;4.38;;
20559;SDS011;10438;51.454;6.718;2023-07-30T01:44:39;10.88;;;4.00;;
20559;SDS011;10438;51.454;6.718;2023-07-30T01:47:05;14.32;;;4.18;;
20559;SDS011;10438;51.454;6.718;2023-07-30T01:49:30;11.10;;;4.78;;
20559;SDS011;10438;51.454;6.718;2023-07-30T01:51:56;17.13;;;4.43;;
20559;SDS011;10438;51.454;6.718;2023-07-30T01:54:21;16.17;;;5.20;;
20559;SDS011;10438;51.454;6.718;2023-07-30T01:56:47;11.47;;;4.17;;
20559;SDS011;10438;51.454;6.718;2023-07-30T01:59:13;9.97;;;3.47;;
20559;SDS011;10438;51.454;6.718;2023-07-30T02:01:38;10.97;;;3.30;;
20559;SDS011;10438;51.454;6.718;2023-07-30T02:04:04;13.40;;;3.50;;
20559;SDS011;10438;51.454;6.718;2023-07-30T02:06:29;9.57;;;3.30;;
20559;SDS011;10438;51.454;6.718;2023-07-30T02:08:55;11.17;;;3.33;;
20559;SDS011;10438;51.454;6.718;2023-07-30T02:11:20;11.10;;;4.20;;
20559;SDS011;10438;51.454;6.718;2023-07-30T02:13:46;13.20;;;3.80;;
20559;SDS011;10438;51.454;6.718;2023-07-30T02:16:11;7.27;;;2.80;;
20559;SDS011;10438;51.454;6.718;2023-07-30T02:18:37;7.73;;;2.90;;
20559;SDS011;10438;51.454;6.718;2023-07-30T02:21:02;7.50;;;3.10;;
20559;SDS011;10438;51.454;6.718;2023-07-30T02:23:28;8.83;;;3.23;;
20559;SDS011;10438;51.454;6.718;2023-07-30T02:25:53;8.47;;;3.40;;
20559;SDS011;10438;51.454;6.718;2023-07-30T02:28:19;15.63;;;3.47;;
20559;SDS011;10438;51.454;6.718;2023-07-30T02:30:44;14.27;;;4.07;;
20559;SDS011;10438;51.454;6.718;2023-07-30T02:33:10;17.60;;;4.63;;
20559;SDS011;10438;51.454;6.718;2023-07-30T02:35:36;11.27;;;4.27;;
20559;SDS011;10438;51.454;6.718;2023-07-30T02:38:01;16.13;;;4.73;;
20559;SDS011;10438;51.454;6.718;2023-07-30T02:40:27;12.47;;;4.53;;
20559;SDS011;10438;51.454;6.718;2023-07-30T02:42:52;13.47;;;4.10;;
20559;SDS011;10438;51.454;6.718;2023-07-30T02:45:18;10.90;;;4.67;;
20559;SDS011;10438;51.454;6.718;2023-07-30T02:47:43;13.33;;;4.20;;
20559;SDS011;10438;51.454;6.718;2023-07-30T02:50:09;21.27;;;4.97;;
20559;SDS011;10438;51.454;6.718;2023-07-30T02:52:34;14.10;;;4.20;;
20559;SDS011;10438;51.454;6.718;2023-07-30T02:55:00;13.40;;;4.10;;
20559;SDS011;10438;51.454;6.718;2023-07-30T02:57:26;13.07;;;4.20;;
20559;SDS011;10438;51.454;6.718;2023-07-30T02:59:51;12.33;;;4.07;;
20559;SDS011;10438;51.454;6.718;2023-07-30T03:02:17;16.87;;;4.27;;
20559;SDS011;10438;51.454;6.718;2023-07-30T03:04:42;12.43;;;3.60;;
20559;SDS011;10438;51.454;6.718;2023-07-30T03:07:08;7.77;;;3.63;;
20559;SDS011;10438;51.454;6.718;2023-07-30T03:09:34;10.10;;;3.80;;
20559;SDS011;10438;51.454;6.718;2023-07-30T03:12:00;9.23;;;3.70;;
20559;SDS011;10438;51.454;6.718;2023-07-30T03:14:26;13.30;;;3.60;;
20559;SDS011;10438;51.454;6.718;2023-07-30T03:16:51;11.87;;;3.90;;
20559;SDS011;10438;51.454;6.718;2023-07-30T03:19:17;14.83;;;3.40;;
20559;SDS011;10438;51.454;6.718;2023-07-30T03:21:42;12.10;;;3.20;;
20559;SDS011;10438;51.454;6.718;2023-07-30T03:24:08;11.10;;;3.60;;
20559;SDS011;10438;51.454;6.718;2023-07-30T03:26:33;14.10;;;3.90;;
20559;SDS011;10438;51.454;6.718;2023-07-30T03:28:59;12.90;;;3.87;;
20559;SDS011;10438;51.454;6.718;2023-07-30T03:31:24;12.07;;;4.57;;
20559;SDS011;10438;51.454;6.718;2023-07-30T03:33:50;12.33;;;4.23;;
20559;SDS011;10438;51.454;6.718;2023-07-30T03:36:16;12.17;;;3.60;;
20559;SDS011;10438;51.454;6.718;2023-07-30T03:38:42;11.87;;;4.33;;
20559;SDS011;10438;51.454;6.718;2023-07-30T03:41:08;14.10;;;4.50;;
20559;SDS011;10438;51.454;6.718;2023-07-30T03:43:35;15.53;;;4.13;;
20559;SDS011;10438;51.454;6.718;2023-07-30T03:46:01;11.00;;;3.57;;
20559;SDS011;10438;51.454;6.718;2023-07-30T03:48:27;12.67;;;4.13;;
20559;SDS011;10438;51.454;6.718;2023-07-30T03:50:53;14.00;;;4.53;;
20559;SDS011;10438;51.454;6.718;2023-07-30T03:53:19;13.60;;;4.20;;
20559;SDS011;10438;51.454;6.718;2023-07-30T03:55:44;15.63;;;4.27;;
20559;SDS011;10438;51.454;6.718;2023-07-30T03:58:10;14.93;;;4.30;;
20559;SDS011;10438;51.454;6.718;2023-07-30T04:00:35;14.10;;;4.33;;
20559;SDS011;10438;51.454;6.718;2023-07-30T04:03:01;14.83;;;3.97;;
20559;SDS011;10438;51.454;6.718;2023-07-30T04:05:27;12.93;;;4.47;;
20559;SDS011;10438;51.454;6.718;2023-07-30T04:07:52;16.27;;;4.10;;
20559;SDS011;10438;51.454;6.718;2023-07-30T04:10:18;12.97;;;3.57;;
20559;SDS011;10438;51.454;6.718;2023-07-30T04:12:44;12.67;;;4.13;;
20559;SDS011;10438;51.454;6.718;2023-07-30T04:15:10;10.23;;;3.93;;
20559;SDS011;10438;51.454;6.718;2023-07-30T04:17:36;10.10;;;3.30;;
20559;SDS011;10438;51.454;6.718;2023-07-30T04:20:02;11.33;;;3.60;;
20559;SDS011;10438;51.454;6.718;2023-07-30T04:22:29;12.53;;;3.77;;
20559;SDS011;10438;51.454;6.718;2023-07-30T04:24:55;12.73;;;3.63;;
20559;SDS011;10438;51.454;6.718;2023-07-30T04:27:20;16.80;;;3.70;;
20559;SDS011;10438;51.454;6.718;2023-07-30T04:29:46;16.40;;;3.47;;
20559;SDS011;10438;51.454;6.718;2023-07-30T04:32:11;13.30;;;3.80;;
20559;SDS011;10438;51.454;6.718;2023-07-30T04:34:37;13.77;;;3.60;;
20559;SDS011;10438;51.454;6.718;2023-07-30T04:37:03;14.03;;;3.50;;
20559;SDS011;10438;51.454;6.718;2023-07-30T04:39:30;15.27;;;4.20;;
20559;SDS011;10438;51.454;6.718;2023-07-30T04:41:57;13.60;;;3.53;;
20559;SDS011;10438;51.454;6.718;2023-07-30T04:44:22;12.27;;;3.33;;
20559;SDS011;10438;51.454;6.718;2023-07-30T04:46:48;12.43;;;4.50;;
20559;SDS011;10438;51.454;6.718;2023-07-30T04:49:14;13.87;;;3.70;;
20559;SDS011;10438;51.454;6.718;2023-07-30T04:51:39;12.37;;;4.10;;
20559;SDS011;10438;51.454;6.718;2023-07-30T04:54:05;13.70;;;4.13;;
20559;SDS011;10438;51.454;6.718;2023-07-30T04:56:30;12.77;;;4.17;;
20559;SDS011;10438;51.454;6.718;2023-07-30T04:58:56;13.90;;;3.90;;
20559;SDS011;10438;51.454;6.718;2023-07-30T05:01:21;18.37;;;4.17;;
20559;SDS011;10438;51.454;6.718;2023-07-30T05:03:48;18.63;;;4.37;;
20559;SDS011;10438;51.454;6.718;2023-07-30T05:06:14;14.73;;;4.10;;
20559;SDS011;10438;51.454;6.718;2023-07-30T05:08:39;11.75;;;3.50;;
20559;SDS011;10438;51.454;6.718;2023-07-30T05:11:05;12.55;;;3.55;;
20559;SDS011;10438;51.454;6.718;2023-07-30T05:13:31;14.50;;;3.55;;
20559;SDS011;10438;51.454;6.718;2023-07-30T05:15:56;14.60;;;3.65;;
20559;SDS011;10438;51.454;6.718;2023-07-30T05:18:22;16.65;;;4.07;;
20559;SDS011;10438;51.454;6.718;2023-07-30T05:20:48;12.43;;;3.03;;
20559;SDS011;10438;51.454;6.718;2023-07-30T05:23:14;10.23;;;3.17;;
20559;SDS011;10438;51.454;6.718;2023-07-30T05:25:39;18.10;;;3.65;;
20559;SDS011;10438;51.454;6.718;2023-07-30T05:28:05;14.88;;;3.58;;
20559;SDS011;10438;51.454;6.718;2023-07-30T05:30:31;18.13;;;6.40;;
20559;SDS011;10438;51.454;6.718;2023-07-30T05:32:56;18.10;;;3.90;;
20559;SDS011;10438;51.454;6.718;2023-07-30T05:35:22;14.00;;;3.60;;
20559;SDS011;10438;51.454;6.718;2023-07-30T05:37:47;16.98;;;3.58;;
20559;SDS011;10438;51.454;6.718;2023-07-30T05:40:13;23.83;;;4.10;;
20559;SDS011;10438;51.454;6.718;2023-07-30T05:42:38;17.27;;;4.00;;
20559;SDS011;10438;51.454;6.718;2023-07-30T05:45:04;11.93;;;3.60;;
20559;SDS011;10438;51.454;6.718;2023-07-30T05:47:30;23.10;;;4.85;;
20559;SDS011;10438;51.454;6.718;2023-07-30T05:49:55;17.08;;;3.95;;
20559;SDS011;10438;51.454;6.718;2023-07-30T05:52:21;15.10;;;4.10;;
20559;SDS011;10438;51.454;6.718;2023-07-30T05:54:47;17.38;;;4.10;;
20559;SDS011;10438;51.454;6.718;2023-07-30T05:57:12;16.52;;;3.78;;
20559;SDS011;10438;51.454;6.718;2023-07-30T05:59:38;14.13;;;3.78;;
20559;SDS011;10438;51.454;6.718;2023-07-30T06:02:03;14.55;;;3.50;;
20559;SDS011;10438;51.454;6.718;2023-07-30T06:04:29;11.80;;;3.35;;
20559;SDS011;10438;51.454;6.718;2023-07-30T06:06:55;15.85;;;3.90;;
20559;SDS011;10438;51.454;6.718;2023-07-30T06:09:21;10.38;;;4.00;;
20559;SDS011;10438;51.454;6.718;2023-07-30T06:11:46;8.85;;;3.00;;
20559;SDS011;10438;51.454;6.718;2023-07-30T06:14:12;13.75;;;3.60;;
20559;SDS011;10438;51.454;6.718;2023-07-30T06:16:37;16.17;;;3.75;;
20559;SDS011;10438;51.454;6.718;2023-07-30T06:19:03;14.90;;;3.67;;
20559;SDS011;10438;51.454;6.718;2023-07-30T06:21:28;17.30;;;3.08;;
20559;SDS011;10438;51.454;6.718;2023-07-30T06:23:54;14.88;;;4.45;;
20559;SDS011;10438;51.454;6.718;2023-07-30T06:26:19;14.98;;;2.80;;
20559;SDS011;10438;51.454;6.718;2023-07-30T06:28:45;13.82;;;2.55;;
20559;SDS011;10438;51.454;6.718;2023-07-30T06:31:10;12.45;;;2.83;;
20559;SDS011;10438;51.454;6.718;2023-07-30T06:33:36;11.63;;;2.50;;
20559;SDS011;10438;51.454;6.718;2023-07-30T06:36:02;12.55;;;2.85;;
20559;SDS011;10438;51.454;6.718;2023-07-30T06:38:29;8.00;;;2.10;;
20559;SDS011;10438;51.454;6.718;2023-07-30T06:40:54;10.20;;;2.22;;
20559;SDS011;10438;51.454;6.718;2023-07-30T06:43:22;8.68;;;2.50;;
20559;SDS011;10438;51.454;6.718;2023-07-30T06:45:48;13.93;;;2.63;;
20559;SDS011;10438;51.454;6.718;2023-07-30T06:48:14;12.52;;;2.67;;
20559;SDS011;10438;51.454;6.718;2023-07-30T06:50:40;11.38;;;2.70;;
20559;SDS011;10438;51.454;6.718;2023-07-30T06:53:06;11.20;;;2.38;;
20559;SDS011;10438;51.454;6.718;2023-07-30T06:55:32;15.85;;;2.78;;
20559;SDS011;10438;51.454;6.718;2023-07-30T06:57:57;11.07;;;2.30;;
20559;SDS011;10438;51.454;6.718;2023-07-30T07:00:23;13.80;;;2.55;;
20559;SDS011;10438;51.454;6.718;2023-07-30T07:02:48;11.10;;;2.25;;
20559;SDS011;10438;51.454;6.718;2023-07-30T07:05:14;14.27;;;3.35;;
20559;SDS011;10438;51.454;6.718;2023-07-30T07:07:40;11.35;;;2.17;;
20559;SDS011;10438;51.454;6.718;2023-07-30T07:10:06;9.95;;;2.47;;
20559;SDS011;10438;51.454;6.718;2023-07-30T07:12:31;14.70;;;2.55;;
20559;SDS011;10438;51.454;6.718;2023-07-30T07:14:57;12.43;;;3.28;;
20559;SDS011;10438;51.454;6.718;2023-07-30T07:17:23;11.82;;;3.00;;
20559;SDS011;10438;51.454;6.718;2023-07-30T07:19:49;12.02;;;2.65;;
20559;SDS011;10438;51.454;6.718;2023-07-30T07:22:15;15.90;;;2.78;;
20559;SDS011;10438;51.454;6.718;2023-07-30T07:24:42;17.00;;;3.35;;
20559;SDS011;10438;51.454;6.718;2023-07-30T07:27:09;16.13;;;3.15;;
20559;SDS011;10438;51.454;6.718;2023-07-30T07:29:34;17.25;;;2.92;;
20559;SDS011;10438;51.454;6.718;2023-07-30T07:32:00;18.98;;;2.65;;
20559;SDS011;10438;51.454;6.718;2023-07-30T07:34:25;14.13;;;3.03;;
20559;SDS011;10438;51.454;6.718;2023-07-30T07:36:51;14.80;;;2.45;;
20559;SDS011;10438;51.454;6.718;2023-07-30T07:39:16;11.27;;;2.65;;
20559;SDS011;10438;51.454;6.718;2023-07-30T07:41:43;11.70;;;2.40;;
20559;SDS011;10438;51.454;6.718;2023-07-30T07:44:08;21.17;;;2.97;;
20559;SDS011;10438;51.454;6.718;2023-07-30T07:46:34;14.48;;;3.30;;
20559;SDS011;10438;51.454;6.718;2023-07-30T07:49:00;13.98;;;2.97;;
20559;SDS011;10438;51.454;6.718;2023-07-30T07:51:25;12.70;;;3.30;;
20559;SDS011;10438;51.454;6.718;2023-07-30T07:53:50;15.55;;;3.45;;
20559;SDS011;10438;51.454;6.718;2023-07-30T07:56:16;19.10;;;3.35;;
20559;SDS011;10438;51.454;6.718;2023-07-30T07:58:42;14.75;;;2.78;;
20559;SDS011;10438;51.454;6.718;2023-07-30T08:01:08;20.95;;;3.50;;
20559;SDS011;10438;51.454;6.718;2023-07-30T08:03:33;13.07;;;3.72;;
20559;SDS011;10438;51.454;6.718;2023-07-30T08:05:59;9.57;;;2.60;;
20559;SDS011;10438;51.454;6.718;2023-07-30T08:08:25;17.55;;;3.05;;
20559;SDS011;10438;51.454;6.718;2023-07-30T08:10:51;10.40;;;2.80;;
20559;SDS011;10438;51.454;6.718;2023-07-30T08:13:17;10.45;;;2.75;;
20559;SDS011;10438;51.454;6.718;2023-07-30T08:15:43;12.73;;;2.90;;
20559;SDS011;10438;51.454;6.718;2023-07-30T08:18:08;13.38;;;2.85;;
20559;SDS011;10438;51.454;6.718;2023-07-30T08:20:34;13.60;;;3.30;;
20559;SDS011;10438;51.454;6.718;2023-07-30T08:22:59;10.77;;;3.22;;
20559;SDS011;10438;51.454;6.718;2023-07-30T08:25:25;14.65;;;3.03;;
20559;SDS011;10438;51.454;6.718;2023-07-30T08:27:50;15.23;;;3.45;;
20559;SDS011;10438;51.454;6.718;2023-07-30T08:30:16;15.23;;;4.00;;
20559;SDS011;10438;51.454;6.718;2023-07-30T08:32:42;13.75;;;3.55;;
20559;SDS011;10438;51.454;6.718;2023-07-30T08:35:08;16.92;;;3.25;;
20559;SDS011;10438;51.454;6.718;2023-07-30T08:37:34;13.88;;;3.45;;
20559;SDS011;10438;51.454;6.718;2023-07-30T08:40:00;17.23;;;3.35;;
20559;SDS011;10438;51.454;6.718;2023-07-30T08:42:25;13.27;;;2.88;;
20559;SDS011;10438;51.454;6.718;2023-07-30T08:44:51;12.98;;;3.22;;
20559;SDS011;10438;51.454;6.718;2023-07-30T08:47:17;13.23;;;2.80;;
20559;SDS011;10438;51.454;6.718;2023-07-30T08:49:42;12.98;;;2.83;;
20559;SDS011;10438;51.454;6.718;2023-07-30T08:52:08;18.92;;;2.75;;
20559;SDS011;10438;51.454;6.718;2023-07-30T08:54:35;15.52;;;3.05;;
20559;SDS011;10438;51.454;6.718;2023-07-30T08:57:02;12.55;;;3.00;;
20559;SDS011;10438;51.454;6.718;2023-07-30T08:59:31;12.35;;;2.88;;
20559;SDS011;10438;51.454;6.718;2023-07-30T09:02:00;18.90;;;2.97;;
20559;SDS011;10438;51.454;6.718;2023-07-30T09:04:26;15.70;;;2.85;;
20559;SDS011;10438;51.454;6.718;2023-07-30T09:06:54;17.23;;;3.00;;
20559;SDS011;10438;51.454;6.718;2023-07-30T09:09:20;13.98;;;3.15;;
20559;SDS011;10438;51.454;6.718;2023-07-30T09:11:52;12.98;;;2.40;;
20559;SDS011;10438;51.454;6.718;2023-07-30T09:14:21;10.73;;;2.53;;
20559;SDS011;10438;51.454;6.718;2023-07-30T09:16:47;16.45;;;3.08;;
20559;SDS011;10438;51.454;6.718;2023-07-30T09:19:16;15.52;;;2.85;;
20559;SDS011;10438;51.454;6.718;2023-07-30T09:21:42;13.75;;;2.55;;
20559;SDS011;10438;51.454;6.718;2023-07-30T09:24:08;13.00;;;2.63;;
20559;SDS011;10438;51.454;6.718;2023-07-30T09:26:44;10.35;;;2.47;;
20559;SDS011;10438;51.454;6.718;2023-07-30T09:29:11;16.08;;;2.95;;
20559;SDS011;10438;51.454;6.718;2023-07-30T09:31:43;15.63;;;2.67;;
20559;SDS011;10438;51.454;6.718;2023-07-30T09:34:16;11.52;;;2.95;;
20559;SDS011;10438;51.454;6.718;2023-07-30T09:36:43;16.52;;;2.83;;
20559;SDS011;10438;51.454;6.718;2023-07-30T09:39:16;14.52;;;2.83;;
20559;SDS011;10438;51.454;6.718;2023-07-30T09:41:44;11.70;;;2.30;;
20559;SDS011;10438;51.454;6.718;2023-07-30T09:44:10;14.45;;;2.50;;
20559;SDS011;10438;51.454;6.718;2023-07-30T09:46:43;9.32;;;2.00;;
20559;SDS011;10438;51.454;6.718;2023-07-30T09:49:10;15.88;;;5.47;;
20559;SDS011;10438;51.454;6.718;2023-07-30T09:51:39;12.73;;;2.85;;
20559;SDS011;10438;51.454;6.718;2023-07-30T09:54:06;12.55;;;2.30;;
20559;SDS011;10438;51.454;6.718;2023-07-30T09:56:32;16.00;;;4.40;;
20559;SDS011;10438;51.454;6.718;2023-07-30T09:58:58;12.50;;;3.03;;
20559;SDS011;10438;51.454;6.718;2023-07-30T10:01:24;11.10;;;2.80;;
20559;SDS011;10438;51.454;6.718;2023-07-30T10:03:52;12.88;;;2.80;;
20559;SDS011;10438;51.454;6.718;2023-07-30T10:06:23;7.63;;;2.30;;
20559;SDS011;10438;51.454;6.718;2023-07-30T10:08:52;12.85;;;2.50;;
20559;SDS011;10438;51.454;6.718;2023-07-30T10:11:20;11.30;;;2.30;;
20559;SDS011;10438;51.454;6.718;2023-07-30T10:13:46;14.48;;;2.55;;
20559;SDS011;10438;51.454;6.718;2023-07-30T10:16:12;12.18;;;2.58;;
20559;SDS011;10438;51.454;6.718;2023-07-30T10:18:41;12.55;;;2.08;;
20559;SDS011;10438;51.454;6.718;2023-07-30T10:21:08;9.52;;;1.73;;
20559;SDS011;10438;51.454;6.718;2023-07-30T10:23:35;10.10;;;2.03;;
20559;SDS011;10438;51.454;6.718;2023-07-30T10:26:08;10.18;;;2.15;;
20559;SDS011;10438;51.454;6.718;2023-07-30T10:28:35;11.30;;;2.03;;
20559;SDS011;10438;51.454;6.718;2023-07-30T10:31:07;12.27;;;2.70;;
20559;SDS011;10438;51.454;6.718;2023-07-30T10:33:46;12.13;;;2.40;;
20559;SDS011;10438;51.454;6.718;2023-07-30T10:36:16;11.63;;;2.20;;
20559;SDS011;10438;51.454;6.718;2023-07-30T10:39:14;13.82;;;2.35;;
20559;SDS011;10438;51.454;6.718;2023-07-30T10:41:40;9.32;;;2.15;;
20559;SDS011;10438;51.454;6.718;2023-07-30T10:44:07;10.07;;;2.03;;
20559;SDS011;10438;51.454;6.718;2023-07-30T10:46:47;10.05;;;1.85;;
20559;SDS011;10438;51.454;6.718;2023-07-30T10:49:13;10.60;;;2.08;;
20559;SDS011;10438;51.454;6.718;2023-07-30T10:51:39;4.85;;;1.25;;
20559;SDS011;10438;51.454;6.718;2023-07-30T10:54:08;7.70;;;1.70;;
20559;SDS011;10438;51.454;6.718;2023-07-30T10:56:34;10.02;;;1.63;;
20559;SDS011;10438;51.454;6.718;2023-07-30T10:59:03;9.98;;;1.90;;
20559;SDS011;10438;51.454;6.718;2023-07-30T11:01:50;9.45;;;1.92;;
20559;SDS011;10438;51.454;6.718;2023-07-30T11:04:18;8.32;;;1.98;;
20559;SDS011;10438;51.454;6.718;2023-07-30T11:06:49;11.90;;;1.73;;
20559;SDS011;10438;51.454;6.718;2023-07-30T11:09:19;12.27;;;2.15;;
20559;SDS011;10438;51.454;6.718;2023-07-30T11:11:45;9.15;;;1.92;;
20559;SDS011;10438;51.454;6.718;2023-07-30T11:14:15;5.53;;;1.63;;
20559;SDS011;10438;51.454;6.718;2023-07-30T11:16:54;6.50;;;1.70;;
20559;SDS011;10438;51.454;6.718;2023-07-30T11:19:25;10.18;;;1.67;;
20559;SDS011;10438;51.454;6.718;2023-07-30T11:21:51;7.28;;;1.92;;
20559;SDS011;10438;51.454;6.718;2023-07-30T11:24:34;8.18;;;1.90;;
20559;SDS011;10438;51.454;6.718;2023-07-30T11:27:00;6.50;;;1.70;;
20559;SDS011;10438;51.454;6.718;2023-07-30T11:29:26;8.38;;;1.70;;
20559;SDS011;10438;51.454;6.718;2023-07-30T11:31:55;8.18;;;2.20;;
20559;SDS011;10438;51.454;6.718;2023-07-30T11:34:22;11.25;;;1.83;;
20559;SDS011;10438;51.454;6.718;2023-07-30T11:36:48;10.57;;;2.22;;
20559;SDS011;10438;51.454;6.718;2023-07-30T11:39:14;7.15;;;1.30;;
20559;SDS011;10438;51.454;6.718;2023-07-30T11:41:40;11.73;;;1.90;;
20559;SDS011;10438;51.454;6.718;2023-07-30T11:44:06;9.65;;;2.05;;
20559;SDS011;10438;51.454;6.718;2023-07-30T11:46:32;9.35;;;1.77;;
20559;SDS011;10438;51.454;6.718;2023-07-30T11:49:11;11.90;;;1.90;;
20559;SDS011;10438;51.454;6.718;2023-07-30T11:51:38;16.23;;;2.35;;
20559;SDS011;10438;51.454;6.718;2023-07-30T11:54:04;8.45;;;1.95;;
20559;SDS011;10438;51.454;6.718;2023-07-30T11:56:31;7.00;;;1.73;;
20559;SDS011;10438;51.454;6.718;2023-07-30T11:59:01;9.50;;;1.60;;
20559;SDS011;10438;51.454;6.718;2023-07-30T12:01:31;8.75;;;1.80;;
20559;SDS011;10438;51.454;6.718;2023-07-30T12:04:00;9.65;;;1.70;;
20559;SDS011;10438;51.454;6.718;2023-07-30T12:06:43;7.95;;;1.50;;
20559;SDS011;10438;51.454;6.718;2023-07-30T12:09:11;6.85;;;1.45;;
20559;SDS011;10438;51.454;6.718;2023-07-30T12:11:46;9.27;;;2.15;;
20559;SDS011;10438;51.454;6.718;2023-07-30T12:14:11;8.73;;;1.88;;
20559;SDS011;10438;51.454;6.718;2023-07-30T12:16:37;10.88;;;1.60;;
20559;SDS011;10438;51.454;6.718;2023-07-30T12:19:03;10.32;;;1.45;;
20559;SDS011;10438;51.454;6.718;2023-07-30T12:21:29;6.72;;;1.20;;
20559;SDS011;10438;51.454;6.718;2023-07-30T12:23:54;5.72;;;1.30;;
20559;SDS011;10438;51.454;6.718;2023-07-30T12:26:20;7.03;;;1.42;;
20559;SDS011;10438;51.454;6.718;2023-07-30T12:28:45;8.27;;;1.20;;
20559;SDS011;10438;51.454;6.718;2023-07-30T12:31:11;5.30;;;0.98;;
20559;SDS011;10438;51.454;6.718;2023-07-30T12:33:36;5.72;;;1.27;;
20559;SDS011;10438;51.454;6.718;2023-07-30T12:36:02;5.82;;;1.15;;
20559;SDS011;10438;51.454;6.718;2023-07-30T12:38:27;5.97;;;1.20;;
20559;SDS011;10438;51.454;6.718;2023-07-30T12:40:53;5.40;;;1.20;;
20559;SDS011;10438;51.454;6.718;2023-07-30T12:43:18;4.07;;;1.00;;
20559;SDS011;10438;51.454;6.718;2023-07-30T12:45:45;5.97;;;1.45;;
20559;SDS011;10438;51.454;6.718;2023-07-30T12:48:11;3.03;;;0.80;;
20559;SDS011;10438;51.454;6.718;2023-07-30T12:50:37;10.50;;;1.00;;
20559;SDS011;10438;51.454;6.718;2023-07-30T12:53:02;5.38;;;1.13;;
20559;SDS011;10438;51.454;6.718;2023-07-30T12:55:28;11.40;;;1.10;;
20559;SDS011;10438;51.454;6.718;2023-07-30T12:57:53;6.78;;;1.40;;
20559;SDS011;10438;51.454;6.718;2023-07-30T13:00:19;4.93;;;1.30;;
20559;SDS011;10438;51.454;6.718;2023-07-30T13:02:45;5.70;;;1.20;;
20559;SDS011;10438;51.454;6.718;2023-07-30T13:05:10;6.55;;;1.13;;
20559;SDS011;10438;51.454;6.718;2023-07-30T13:07:36;5.25;;;1.30;;
20559;SDS011;10438;51.454;6.718;2023-07-30T13:10:02;6.88;;;1.30;;
20559;SDS011;10438;51.454;6.718;2023-07-30T13:12:29;6.93;;;1.40;;
20559;SDS011;10438;51.454;6.718;2023-07-30T13:14:54;6.53;;;1.60;;
20559;SDS011;10438;51.454;6.718;2023-07-30T13:17:20;7.88;;;1.63;;
20559;SDS011;10438;51.454;6.718;2023-07-30T13:19:45;7.13;;;1.90;;
20559;SDS011;10438;51.454;6.718;2023-07-30T13:22:11;4.30;;;1.25;;
20559;SDS011;10438;51.454;6.718;2023-07-30T13:24:36;6.60;;;1.27;;
20559;SDS011;10438;51.454;6.718;2023-07-30T13:27:02;10.50;;;2.15;;
20559;SDS011;10438;51.454;6.718;2023-07-30T13:29:28;9.93;;;2.17;;
20559;SDS011;10438;51.454;6.718;2023-07-30T13:31:53;6.65;;;2.10;;
20559;SDS011;10438;51.454;6.718;2023-07-30T13:34:19;6.43;;;1.67;;
20559;SDS011;10438;51.454;6.718;2023-07-30T13:36:44;8.93;;;1.63;;
20559;SDS011;10438;51.454;6.718;2023-07-30T13:39:10;6.07;;;1.48;;
20559;SDS011;10438;51.454;6.718;2023-07-30T13:41:35;8.35;;;1.63;;
20559;SDS011;10438;51.454;6.718;2023-07-30T13:44:01;7.40;;;1.63;;
20559;SDS011;10438;51.454;6.718;2023-07-30T13:46:26;10.38;;;1.48;;
20559;SDS011;10438;51.454;6.718;2023-07-30T13:48:52;7.93;;;2.67;;
20559;SDS011;10438;51.454;6.718;2023-07-30T13:51:17;8.23;;;1.55;;
20559;SDS011;10438;51.454;6.718;2023-07-30T13:53:43;8.52;;;2.10;;
20559;SDS011;10438;51.454;6.718;2023-07-30T13:56:08;7.22;;;1.40;;
20559;SDS011;10438;51.454;6.718;2023-07-30T13:58:34;5.00;;;1.45;;
20559;SDS011;10438;51.454;6.718;2023-07-30T14:00:59;7.22;;;1.70;;
20559;SDS011;10438;51.454;6.718;2023-07-30T14:03:25;7.75;;;2.00;;
20559;SDS011;10438;51.454;6.718;2023-07-30T14:05:50;7.72;;;1.98;;
20559;SDS011;10438;51.454;6.718;2023-07-30T14:08:16;8.95;;;2.20;;
20559;SDS011;10438;51.454;6.718;2023-07-30T14:10:41;5.38;;;1.90;;
20559;SDS011;10438;51.454;6.718;2023-07-30T14:13:07;7.65;;;1.73;;
20559;SDS011;10438;51.454;6.718;2023-07-30T14:15:32;8.02;;;1.77;;
20559;SDS011;10438;51.454;6.718;2023-07-30T14:17:58;9.63;;;1.70;;
20559;SDS011;10438;51.454;6.718;2023-07-30T14:20:23;9.18;;;1.83;;
20559;SDS011;10438;51.454;6.718;2023-07-30T14:22:49;5.00;;;1.30;;
20559;SDS011;10438;51.454;6.718;2023-07-30T14:25:16;6.18;;;1.63;;
20559;SDS011;10438;51.454;6.718;2023-07-30T14:27:42;7.95;;;1.77;;
20559;SDS011;10438;51.454;6.718;2023-07-30T14:30:07;8.10;;;1.48;;
20559;SDS011;10438;51.454;6.718;2023-07-30T14:32:33;6.55;;;1.20;;
20559;SDS011;10438;51.454;6.718;2023-07-30T14:34:59;8.90;;;1.58;;